Terminal Aerodrome Forecast
Issued by NWS

Home | Current Version | Previous Version | Text Only | Print | Product List | Glossary On
Versions: 1 2 3 4 5 6 7 8 9 10 11 12 13 14 15 16 17 18 19 20 21 22 23 24 25 26 27 28 29
208
FTUS43 KABR 121459 AAA
TAFPIR
TAF AMD
KPIR 121459Z 1215/1312 03009KT P6SM FEW019 OVC045
     FM121800 05012KT P6SM BKN050
     FM130600 11012KT P6SM OVC050=

USA.gov is the U.S. government's official web portal to all federal, state and local government web resources and services.